createdAt,value
2022-10-11T04:11:45.464Z,14.60
2022-10-11T04:14:11.571Z,13.40
2022-10-11T04:16:40.650Z,14.10
2022-10-11T04:19:06.812Z,12.80
2022-10-11T04:21:32.929Z,14.00
2022-10-11T04:23:59.097Z,13.20
2022-10-11T04:26:26.542Z,13.20
2022-10-11T04:28:53.101Z,12.40
2022-10-11T04:31:19.466Z,11.90
2022-10-11T04:33:45.729Z,12.60
2022-10-11T04:36:11.883Z,11.40
2022-10-11T04:38:37.992Z,14.50
2022-10-11T04:41:09.231Z,12.10
2022-10-11T04:43:35.974Z,11.60
2022-10-11T04:46:02.806Z,11.70
2022-10-11T04:48:29.263Z,11.90
2022-10-11T04:50:55.670Z,11.70
2022-10-11T04:53:21.883Z,11.30
2022-10-11T04:56:06.838Z,11.90
2022-10-11T04:58:34.228Z,12.20
2022-10-11T05:01:00.906Z,12.20
2022-10-11T05:03:27.551Z,11.00
2022-10-11T05:05:53.947Z,12.90
2022-10-11T05:08:22.434Z,12.50
2022-10-11T05:11:00.355Z,12.90
2022-10-11T05:13:28.077Z,13.20
2022-10-11T05:15:54.521Z,12.80
2022-10-11T05:18:21.552Z,13.00
2022-10-11T05:20:48.026Z,12.30
2022-10-11T05:23:14.788Z,12.40
2022-10-11T05:25:41.365Z,12.40
2022-10-11T05:28:07.646Z,12.30
2022-10-11T05:30:33.810Z,12.60
2022-10-11T05:33:00.093Z,12.30
2022-10-11T05:35:26.213Z,12.10
2022-10-11T05:37:52.410Z,12.40
2022-10-11T05:40:18.599Z,13.00
2022-10-11T05:42:44.727Z,12.00
2022-10-11T05:45:10.887Z,12.10
2022-10-11T05:47:36.991Z,12.70
2022-10-11T05:50:03.254Z,12.00
2022-10-11T05:52:34.105Z,10.80
2022-10-11T05:55:00.405Z,11.70
2022-10-11T05:57:26.622Z,11.60
2022-10-11T05:59:52.754Z,10.90
2022-10-11T06:02:18.928Z,11.00
2022-10-11T06:04:45.359Z,9.70
2022-10-11T06:07:11.481Z,10.70
2022-10-11T06:09:38.854Z,9.80
2022-10-11T06:12:05.580Z,10.30
2022-10-11T06:14:31.724Z,9.90
2022-10-11T06:16:57.885Z,10.20
2022-10-11T06:19:24.142Z,9.70
2022-10-11T06:21:50.907Z,10.10
2022-10-11T06:24:18.056Z,9.50
2022-10-11T06:26:44.159Z,9.20
2022-10-11T06:29:10.667Z,9.60
2022-10-11T06:31:36.886Z,9.80
2022-10-11T06:34:03.049Z,9.00
2022-10-11T06:36:29.248Z,8.70
2022-10-11T06:38:55.442Z,9.90
2022-10-11T06:41:26.693Z,8.50
2022-10-11T06:43:53.236Z,8.90
2022-10-11T06:46:21.189Z,7.80
2022-10-11T06:48:48.503Z,8.50
2022-10-11T06:51:17.443Z,8.90
2022-10-11T06:53:48.553Z,8.60
2022-10-11T06:56:14.712Z,8.40
2022-10-11T06:58:40.905Z,8.40
2022-10-11T07:01:10.828Z,7.70
2022-10-11T07:03:37.685Z,8.20
2022-10-11T07:06:16.948Z,7.80
2022-10-11T07:08:43.236Z,8.10
2022-10-11T07:11:15.517Z,7.40
2022-10-11T07:13:42.060Z,6.40
2022-10-11T07:16:11.435Z,7.60
2022-10-11T07:18:38.435Z,6.70
2022-10-11T07:21:07.030Z,7.80
2022-10-11T07:23:33.919Z,6.50
2022-10-11T07:26:00.294Z,7.00
2022-10-11T07:28:28.196Z,7.20
2022-10-11T07:30:54.487Z,6.00
2022-10-11T07:33:20.585Z,8.70
2022-10-11T07:35:48.813Z,21.10
2022-10-11T07:38:15.740Z,6.80
2022-10-11T07:40:43.760Z,6.40
2022-10-11T07:43:11.559Z,5.90
2022-10-11T07:45:38.814Z,5.50
2022-10-11T07:48:05.451Z,9.40
2022-10-11T07:50:32.489Z,5.50
2022-10-11T07:52:58.732Z,5.30
2022-10-11T07:55:26.695Z,8.20
2022-10-11T07:57:56.292Z,6.00
2022-10-11T08:00:22.845Z,9.30
2022-10-11T08:02:49.277Z,7.30
2022-10-11T08:05:15.980Z,6.00
2022-10-11T08:07:42.219Z,6.30
2022-10-11T08:10:09.329Z,11.10
2022-10-11T08:12:35.495Z,6.20
2022-10-11T08:15:01.725Z,5.20
2022-10-11T08:17:29.789Z,6.20
2022-10-11T08:19:57.354Z,9.70
2022-10-11T08:22:23.435Z,5.60
2022-10-11T08:24:49.534Z,6.30
2022-10-11T08:27:15.676Z,7.70
2022-10-11T08:29:41.839Z,6.80
2022-10-11T08:32:11.323Z,5.10
2022-10-11T08:34:40.022Z,6.30
2022-10-11T08:37:06.162Z,5.40
2022-10-11T08:39:32.318Z,3.90
2022-10-11T08:42:04.291Z,3.90
2022-10-11T08:45:09.902Z,3.80
2022-10-11T08:47:39.704Z,9.60
2022-10-11T08:50:07.657Z,4.60
2022-10-11T08:52:36.800Z,4.30
2022-10-11T08:55:41.232Z,5.10
2022-10-11T08:58:11.690Z,3.80
2022-10-11T09:00:40.091Z,3.90
2022-10-11T09:03:38.241Z,4.40
2022-10-11T09:06:36.619Z,3.90
2022-10-11T09:09:34.736Z,4.00
2022-10-11T09:12:14.246Z,3.50
2022-10-11T09:14:50.315Z,3.70
2022-10-11T09:17:44.610Z,4.80
2022-10-11T09:23:23.802Z,4.10
2022-10-11T09:26:06.916Z,3.10
2022-10-11T09:29:01.246Z,4.10
2022-10-11T09:33:55.238Z,3.20
2022-10-11T09:36:44.111Z,3.80
2022-10-11T09:39:33.185Z,3.60
2022-10-11T09:42:00.985Z,4.70
2022-10-11T09:44:29.596Z,3.70
2022-10-11T09:46:56.832Z,3.40
2022-10-11T09:49:57.150Z,3.70
2022-10-11T09:52:24.921Z,3.40
2022-10-11T09:54:57.316Z,3.60
2022-10-11T09:57:25.671Z,3.10
2022-10-11T10:00:02.135Z,3.30
2022-10-11T10:02:46.712Z,3.70
2022-10-11T10:05:15.081Z,3.40
2022-10-11T10:07:57.381Z,3.70
2022-10-11T10:10:26.773Z,3.20
2022-10-11T10:13:00.084Z,3.40
2022-10-11T10:18:02.883Z,3.50
2022-10-11T10:20:34.788Z,3.50
2022-10-11T10:23:08.909Z,3.60
2022-10-11T10:25:43.045Z,3.40
2022-10-11T10:28:26.442Z,3.10
2022-10-11T10:30:57.719Z,3.30
2022-10-11T10:33:29.178Z,3.10
2022-10-11T10:36:16.801Z,3.70
2022-10-11T10:38:52.340Z,3.20
2022-10-11T10:41:19.007Z,3.10
2022-10-11T10:44:01.307Z,3.10
2022-10-11T10:47:00.652Z,3.30
2022-10-11T10:49:54.084Z,3.50
2022-10-11T10:52:44.268Z,3.20
2022-10-11T10:55:42.465Z,3.60
2022-10-11T10:58:27.329Z,3.60
2022-10-11T11:01:01.569Z,3.20
2022-10-11T11:03:45.592Z,3.60
2022-10-11T11:06:22.919Z,3.30
2022-10-11T11:08:57.359Z,3.10
2022-10-11T11:11:48.668Z,3.60
2022-10-11T11:14:30.820Z,2.80
2022-10-11T11:17:11.482Z,3.50
2022-10-11T11:19:57.760Z,3.20
2022-10-11T11:22:30.503Z,3.20
2022-10-11T11:25:30.917Z,3.30
2022-10-11T11:28:22.604Z,3.40
2022-10-11T11:31:05.833Z,3.20
2022-10-11T11:33:49.139Z,3.20
2022-10-11T11:36:28.382Z,3.00
2022-10-11T11:39:01.897Z,3.10
2022-10-11T11:41:42.719Z,3.60
2022-10-11T11:44:16.264Z,3.20
2022-10-11T11:49:31.885Z,3.10
2022-10-11T11:51:59.859Z,3.30
2022-10-11T11:54:44.122Z,3.40
2022-10-11T11:57:43.016Z,3.40
2022-10-11T12:00:12.718Z,3.20
2022-10-11T12:02:47.647Z,3.30
2022-10-11T12:05:17.826Z,3.00
2022-10-11T12:08:17.713Z,3.40
2022-10-11T12:10:49.732Z,2.90
2022-10-11T12:13:20.831Z,3.50
2022-10-11T12:16:02.950Z,2.90
2022-10-11T12:18:30.909Z,2.80
2022-10-11T12:21:17.764Z,3.00
2022-10-11T12:23:49.579Z,3.00
2022-10-11T12:26:36.176Z,3.00
2022-10-11T12:29:18.605Z,2.90
2022-10-11T12:31:48.755Z,2.60
2022-10-11T12:34:33.747Z,3.00
2022-10-11T12:37:22.217Z,3.00
2022-10-11T12:39:59.535Z,3.10
2022-10-11T12:42:28.343Z,2.90
2022-10-11T12:48:56.408Z,2.60
2022-10-11T12:51:33.240Z,2.70
2022-10-11T12:54:31.002Z,3.10
2022-10-11T12:57:00.704Z,2.80
2022-10-11T12:59:30.343Z,3.00
2022-10-11T13:01:59.130Z,3.00
2022-10-11T13:04:29.294Z,2.40
2022-10-11T13:07:06.598Z,2.80
2022-10-11T13:09:41.585Z,2.40
2022-10-11T13:12:17.473Z,2.70
2022-10-11T13:14:47.593Z,2.70
2022-10-11T13:17:24.945Z,3.10
2022-10-11T13:20:19.028Z,2.40
2022-10-11T13:22:48.980Z,2.90
2022-10-11T13:25:18.895Z,2.90
2022-10-11T13:27:47.470Z,2.80
2022-10-11T13:30:20.880Z,2.70
2022-10-11T13:32:47.590Z,3.10
2022-10-11T13:35:24.828Z,3.00
2022-10-11T13:37:51.203Z,3.20
2022-10-11T13:40:20.247Z,3.40
2022-10-11T13:42:48.553Z,3.20
2022-10-11T13:45:19.549Z,3.10
2022-10-11T13:47:49.071Z,3.10
2022-10-11T13:50:15.240Z,3.30
2022-10-11T13:52:59.164Z,3.50
2022-10-11T13:55:41.357Z,2.90
2022-10-11T13:58:19.264Z,2.80
2022-10-11T14:01:16.055Z,2.90
2022-10-11T14:03:46.056Z,2.70
2022-10-11T14:06:12.701Z,3.10
2022-10-11T14:08:46.440Z,2.70
2022-10-11T14:11:13.644Z,2.80
2022-10-11T14:13:49.247Z,2.90
2022-10-11T14:16:15.355Z,2.20
2022-10-11T14:18:49.508Z,2.30
2022-10-11T14:21:18.407Z,2.90
2022-10-11T14:23:46.197Z,3.10
2022-10-11T14:26:18.566Z,3.20
2022-10-11T14:28:50.443Z,2.70
2022-10-11T14:31:16.894Z,2.80
2022-10-11T14:33:43.637Z,3.00
2022-10-11T14:36:09.769Z,3.40
2022-10-11T14:38:36.080Z,3.30
2022-10-11T14:41:02.298Z,2.50
2022-10-11T14:43:28.460Z,3.70
2022-10-11T14:45:54.653Z,3.60
2022-10-11T14:48:43.045Z,3.80
2022-10-11T14:51:11.184Z,3.00
2022-10-11T14:53:41.255Z,2.90
2022-10-11T14:56:07.760Z,3.20
2022-10-11T14:58:34.079Z,3.50
2022-10-11T15:01:00.181Z,4.00
2022-10-11T15:03:26.342Z,3.40
2022-10-11T15:05:52.652Z,4.10
2022-10-11T15:08:19.161Z,4.30
2022-10-11T15:10:45.286Z,4.70
2022-10-11T15:13:11.430Z,3.50
2022-10-11T15:15:40.180Z,3.20
2022-10-11T15:18:10.153Z,3.20
2022-10-11T15:20:38.912Z,3.50
2022-10-11T15:23:08.917Z,4.20
2022-10-11T15:25:37.375Z,5.20
2022-10-11T15:28:04.597Z,5.60
2022-10-11T15:30:38.515Z,5.70
2022-10-11T15:33:07.805Z,5.30
2022-10-11T15:35:34.105Z,4.40
2022-10-11T15:38:00.325Z,4.30
2022-10-11T15:40:30.963Z,4.40
2022-10-11T15:42:57.340Z,4.10
2022-10-11T15:45:23.777Z,4.10
2022-10-11T15:47:50.714Z,4.20
2022-10-11T15:50:33.262Z,4.10
2022-10-11T15:53:02.096Z,4.10
2022-10-11T15:55:29.316Z,4.80
2022-10-11T15:57:56.469Z,4.30
2022-10-11T16:00:23.722Z,4.20
2022-10-11T16:02:51.591Z,4.50
2022-10-11T16:05:23.552Z,4.10
2022-10-11T16:07:51.090Z,5.00
2022-10-11T16:10:17.595Z,4.60
2022-10-11T16:12:43.793Z,4.70
2022-10-11T16:15:10.323Z,4.10
2022-10-11T16:17:37.465Z,4.50
2022-10-11T16:20:06.037Z,4.70
2022-10-11T16:22:33.493Z,4.00
2022-10-11T16:25:00.046Z,4.60
2022-10-11T16:27:26.552Z,4.40
2022-10-11T16:29:53.109Z,4.40
2022-10-11T16:32:20.328Z,4.20
2022-10-11T16:34:47.020Z,4.80
2022-10-11T16:37:13.646Z,4.70
2022-10-11T16:39:39.799Z,5.40
2022-10-11T16:42:06.062Z,5.40
2022-10-11T16:44:32.432Z,5.70
2022-10-11T16:46:59.470Z,5.80
2022-10-11T16:49:27.613Z,6.30
2022-10-11T16:51:56.178Z,5.60
2022-10-11T16:54:22.346Z,6.10
2022-10-11T16:56:49.305Z,5.60
2022-10-11T16:59:16.633Z,5.60
2022-10-11T17:01:44.334Z,6.10
2022-10-11T17:04:11.556Z,5.90
2022-10-11T17:06:39.455Z,6.40
2022-10-11T17:09:06.962Z,6.30
2022-10-11T17:11:33.401Z,6.40
2022-10-11T17:14:00.480Z,6.30
2022-10-11T17:16:27.030Z,6.20
2022-10-11T17:18:53.203Z,5.90
2022-10-11T17:21:21.248Z,6.90
2022-10-11T17:23:48.383Z,6.00
2022-10-11T17:26:19.500Z,7.00
2022-10-11T17:28:45.883Z,6.90
2022-10-11T17:31:12.395Z,7.00
2022-10-11T17:33:38.558Z,6.10
2022-10-11T17:36:23.425Z,6.60
2022-10-11T17:38:51.038Z,7.10
2022-10-11T17:41:17.666Z,6.80
2022-10-11T17:43:43.923Z,7.40
2022-10-11T17:46:12.640Z,6.60
2022-10-11T17:48:39.270Z,6.40
2022-10-11T17:51:10.764Z,7.00
2022-10-11T17:53:37.116Z,6.40
2022-10-11T17:56:09.072Z,6.70
2022-10-11T17:58:35.822Z,5.80
2022-10-11T18:01:04.948Z,5.60
2022-10-11T18:03:31.797Z,5.30
2022-10-11T18:05:58.286Z,5.30
2022-10-11T18:08:24.650Z,5.10
2022-10-11T18:10:50.812Z,5.10
2022-10-11T18:13:17.138Z,5.40
2022-10-11T18:15:43.289Z,5.30
2022-10-11T18:18:11.000Z,6.10
2022-10-11T18:20:37.524Z,6.40
2022-10-11T18:23:03.649Z,6.60
2022-10-11T18:25:32.654Z,6.90
2022-10-11T18:27:58.787Z,6.80
2022-10-11T18:30:25.120Z,6.40
2022-10-11T18:32:51.220Z,6.20
2022-10-11T18:35:17.369Z,5.70
2022-10-11T18:37:43.498Z,6.40
2022-10-11T18:40:09.814Z,6.50
2022-10-11T18:42:35.979Z,6.60
2022-10-11T18:45:02.268Z,7.40
2022-10-11T18:47:28.469Z,7.30
2022-10-11T18:49:54.652Z,7.10
2022-10-11T18:52:20.799Z,5.60
2022-10-11T18:54:47.058Z,5.80
2022-10-11T18:57:13.185Z,5.40
2022-10-11T18:59:39.303Z,5.60
2022-10-11T19:02:05.744Z,5.70
2022-10-11T19:04:33.559Z,5.80
2022-10-11T19:06:59.771Z,5.00
2022-10-11T19:09:27.554Z,5.20
2022-10-11T19:11:55.407Z,5.30
2022-10-11T19:14:30.795Z,5.00
2022-10-11T19:16:57.606Z,5.90
2022-10-11T19:19:28.971Z,5.60
2022-10-11T19:21:55.658Z,6.00
2022-10-11T19:24:25.010Z,5.70
2022-10-11T19:26:52.387Z,6.10
2022-10-11T19:29:21.721Z,5.40
2022-10-11T19:31:50.498Z,6.30
2022-10-11T19:34:18.174Z,6.30
2022-10-11T19:36:44.691Z,6.70
2022-10-11T19:39:15.649Z,7.10
2022-10-11T19:41:43.359Z,7.90
2022-10-11T19:44:11.117Z,7.80
2022-10-11T19:46:51.025Z,8.00
2022-10-11T19:49:21.708Z,7.90
2022-10-11T19:51:47.893Z,8.30
2022-10-11T19:54:14.754Z,8.40
2022-10-11T19:56:41.805Z,9.10
2022-10-11T19:59:10.376Z,10.00
2022-10-11T20:01:37.043Z,8.90
2022-10-11T20:04:05.801Z,8.30
2022-10-11T20:06:38.115Z,9.00
2022-10-11T20:09:28.018Z,8.70
2022-10-11T20:11:53.204Z,8.90
2022-10-11T20:14:19.762Z,8.40
2022-10-11T20:16:49.202Z,8.60
2022-10-11T20:19:15.350Z,8.50
2022-10-11T20:21:41.531Z,9.00
2022-10-11T20:24:07.848Z,8.90
2022-10-11T20:26:34.261Z,8.90
2022-10-11T20:29:00.396Z,9.10
2022-10-11T20:31:32.577Z,9.00
2022-10-11T20:34:02.677Z,8.40
2022-10-11T20:36:29.868Z,9.30
2022-10-11T20:38:57.503Z,9.00
2022-10-11T20:41:26.706Z,8.10
2022-10-11T20:43:56.026Z,9.50
2022-10-11T20:46:24.676Z,8.70
2022-10-11T20:49:01.555Z,8.90
2022-10-11T20:51:29.897Z,8.70
2022-10-11T20:53:57.282Z,9.30
2022-10-11T20:56:23.483Z,8.00
2022-10-11T20:58:54.226Z,8.00
2022-10-11T21:01:23.206Z,8.20
2022-10-11T21:03:49.695Z,8.90
2022-10-11T21:06:16.964Z,9.10
2022-10-11T21:08:43.954Z,9.10
2022-10-11T21:11:10.889Z,8.90
2022-10-11T21:13:37.380Z,9.50
2022-10-11T21:16:19.541Z,9.40
2022-10-11T21:18:51.124Z,8.90
2022-10-11T21:21:17.742Z,8.90
2022-10-11T21:23:43.933Z,8.70
2022-10-11T21:26:12.913Z,9.70
2022-10-11T21:28:39.957Z,9.00
2022-10-11T21:31:08.901Z,9.10
2022-10-11T21:33:36.000Z,8.70
2022-10-11T21:36:04.738Z,9.10
2022-10-11T21:38:31.195Z,8.30
2022-10-11T21:40:57.402Z,8.80
2022-10-11T21:43:24.184Z,8.30
2022-10-11T21:45:50.578Z,9.10
2022-10-11T21:48:17.152Z,8.20
2022-10-11T21:50:43.259Z,8.90
2022-10-11T21:53:09.365Z,8.50
2022-10-11T21:55:35.552Z,8.70
2022-10-11T21:58:01.815Z,8.50
2022-10-11T22:00:27.956Z,9.30
2022-10-11T22:02:54.221Z,9.00
2022-10-11T22:05:20.430Z,9.00
2022-10-11T22:07:46.521Z,9.00
2022-10-11T22:10:12.663Z,9.00
2022-10-11T22:12:38.813Z,8.90
2022-10-11T22:15:05.868Z,9.60
2022-10-11T22:17:32.020Z,9.10
2022-10-11T22:19:58.227Z,9.50
2022-10-11T22:22:24.374Z,9.10
2022-10-11T22:24:50.519Z,9.70
2022-10-11T22:27:16.611Z,10.30
2022-10-11T22:29:42.786Z,9.20
2022-10-11T22:32:08.951Z,9.40
2022-10-11T22:34:35.123Z,9.40
2022-10-11T22:37:01.278Z,9.50
2022-10-11T22:39:28.844Z,8.90
2022-10-11T22:41:54.951Z,8.40
2022-10-11T22:44:21.346Z,9.00
2022-10-11T22:46:47.514Z,9.20
2022-10-11T22:49:13.638Z,9.00
2022-10-11T22:51:39.787Z,9.90
2022-10-11T22:54:05.947Z,9.80
2022-10-11T22:56:32.063Z,9.90
2022-10-11T22:58:58.728Z,8.40
2022-10-11T23:01:24.840Z,8.90
2022-10-11T23:03:51.074Z,9.40
2022-10-11T23:06:17.532Z,9.60
2022-10-11T23:08:43.765Z,9.80
2022-10-11T23:14:40.632Z,12.70
2022-10-11T23:17:06.939Z,10.00
2022-10-11T23:19:33.073Z,9.00
2022-10-11T23:21:59.201Z,10.10
2022-10-11T23:24:25.360Z,15.50
2022-10-11T23:26:51.471Z,14.60
2022-10-11T23:29:17.592Z,10.50
2022-10-11T23:31:45.554Z,10.60
2022-10-11T23:34:13.285Z,11.30
2022-10-11T23:36:39.407Z,16.50
2022-10-11T23:39:05.537Z,12.80
2022-10-11T23:41:31.673Z,8.80
2022-10-11T23:43:58.159Z,9.40
2022-10-11T23:46:24.525Z,9.00
2022-10-11T23:48:50.786Z,9.60
2022-10-11T23:51:16.950Z,9.20
2022-10-11T23:53:43.107Z,9.40
2022-10-11T23:56:11.021Z,10.20
2022-10-11T23:58:37.442Z,10.30
